createdAt,value
2018-03-04T00:01:10.953Z,93.70
2018-03-04T00:03:40.080Z,102.00
2018-03-04T00:06:09.178Z,91.43
2018-03-04T00:08:38.277Z,93.40
2018-03-04T00:11:07.384Z,89.10
2018-03-04T00:13:36.480Z,89.90
2018-03-04T00:16:05.616Z,91.70
2018-03-04T00:18:34.735Z,90.60
2018-03-04T00:21:03.840Z,98.30
2018-03-04T00:23:33.732Z,94.73
2018-03-04T00:26:03.781Z,101.10
2018-03-04T00:28:32.912Z,101.20
2018-03-04T00:31:02.022Z,103.93
2018-03-04T00:33:31.904Z,98.93
2018-03-04T00:36:00.988Z,101.43
2018-03-04T00:38:30.108Z,103.80
2018-03-04T00:40:59.197Z,95.57
2018-03-04T00:43:28.316Z,98.50
2018-03-04T00:45:57.423Z,97.70
2018-03-04T00:48:26.518Z,101.30
2018-03-04T00:50:56.382Z,95.20
2018-03-04T00:53:25.556Z,96.67
2018-03-04T00:55:54.605Z,89.80
2018-03-04T00:58:23.739Z,101.37
2018-03-04T01:00:53.585Z,95.10
2018-03-04T01:03:22.681Z,100.47
2018-03-04T01:05:51.795Z,98.13
2018-03-04T01:08:20.887Z,96.27
2018-03-04T01:10:50.028Z,101.20
2018-03-04T01:13:19.878Z,98.43
2018-03-04T01:15:49.235Z,97.43
2018-03-04T01:18:19.100Z,95.13
2018-03-04T01:20:48.188Z,90.83
2018-03-04T01:23:17.310Z,99.97
2018-03-04T01:25:46.417Z,98.67
2018-03-04T01:28:15.534Z,89.97
2018-03-04T01:30:45.400Z,94.30
2018-03-04T01:33:15.300Z,98.80
2018-03-04T01:35:44.395Z,94.20
2018-03-04T01:38:13.488Z,96.53
2018-03-04T01:40:42.602Z,95.90
2018-03-04T01:43:11.688Z,93.40
2018-03-04T01:45:40.785Z,94.20
2018-03-04T01:48:09.921Z,96.80
2018-03-04T01:50:39.021Z,92.60
2018-03-04T01:53:08.898Z,96.10
2018-03-04T01:55:37.996Z,88.93
2018-03-04T01:58:07.107Z,93.60
2018-03-04T02:00:36.192Z,94.70
2018-03-04T02:03:05.313Z,91.83
2018-03-04T02:05:34.415Z,91.50
2018-03-04T02:08:03.497Z,93.77
2018-03-04T02:10:32.610Z,89.40
2018-03-04T02:13:01.702Z,86.33
2018-03-04T02:15:30.818Z,89.73
2018-03-04T02:18:00.674Z,90.07
2018-03-04T02:20:29.812Z,95.30
2018-03-04T02:22:58.874Z,91.93
2018-03-04T02:25:27.964Z,99.50
2018-03-04T02:27:57.066Z,101.43
2018-03-04T02:30:26.952Z,98.40
2018-03-04T02:32:56.049Z,98.47
2018-03-04T02:35:25.138Z,98.10
2018-03-04T02:37:54.234Z,93.80
2018-03-04T02:40:23.343Z,100.50
2018-03-04T02:42:52.451Z,95.87
2018-03-04T02:45:21.565Z,102.80
2018-03-04T02:47:51.411Z,88.97
2018-03-04T02:50:21.293Z,91.30
2018-03-04T02:52:50.370Z,92.27
2018-03-04T02:55:19.475Z,96.00
2018-03-04T02:57:48.631Z,93.00
2018-03-04T03:00:17.719Z,96.23
2018-03-04T03:02:47.578Z,91.93
2018-03-04T03:05:16.724Z,94.00
2018-03-04T03:07:46.571Z,94.70
2018-03-04T03:10:15.662Z,96.30
2018-03-04T03:12:44.770Z,96.40
2018-03-04T03:15:13.860Z,92.00
2018-03-04T03:17:42.961Z,92.10
2018-03-04T03:20:12.051Z,93.70
2018-03-04T03:22:41.182Z,93.80
2018-03-04T03:25:10.273Z,93.13
2018-03-04T03:27:39.405Z,91.93
2018-03-04T03:30:09.282Z,96.97
2018-03-04T03:32:38.376Z,87.40
2018-03-04T03:35:07.463Z,87.27
2018-03-04T03:37:36.577Z,89.93
2018-03-04T03:40:06.430Z,90.77
2018-03-04T03:42:36.318Z,87.20
2018-03-04T03:45:05.421Z,91.27
2018-03-04T03:47:34.507Z,89.70
2018-03-04T03:50:03.618Z,93.07
2018-03-04T03:52:34.147Z,94.03
2018-03-04T03:55:04.036Z,91.17
2018-03-04T03:57:33.111Z,91.97
2018-03-04T04:00:02.996Z,89.73
2018-03-04T04:02:32.859Z,90.37
2018-03-04T04:05:03.283Z,88.23
2018-03-04T04:07:32.418Z,88.87
2018-03-04T04:10:02.279Z,84.07
2018-03-04T04:12:31.386Z,83.87
2018-03-04T04:15:00.476Z,91.47
2018-03-04T04:17:29.608Z,83.97
2018-03-04T04:19:59.451Z,82.83
2018-03-04T04:22:28.543Z,97.07
2018-03-04T04:24:57.654Z,86.37
2018-03-04T04:27:26.757Z,94.50
2018-03-04T04:29:55.853Z,86.30
2018-03-04T04:32:25.725Z,92.07
2018-03-04T04:34:55.602Z,91.03
2018-03-04T04:37:24.701Z,93.60
2018-03-04T04:39:53.806Z,94.97
2018-03-04T04:42:22.893Z,89.77
2018-03-04T04:44:52.010Z,91.47
2018-03-04T04:47:21.101Z,94.07
2018-03-04T04:49:50.207Z,93.83
2018-03-04T04:52:20.063Z,92.00
2018-03-04T04:54:49.178Z,96.20
2018-03-04T04:57:18.293Z,93.37
2018-03-04T04:59:47.405Z,89.70
2018-03-04T05:02:17.268Z,93.40
2018-03-04T05:04:46.425Z,91.53
2018-03-04T05:07:15.513Z,92.73
2018-03-04T05:09:44.614Z,90.83
2018-03-04T05:12:13.741Z,91.70
2018-03-04T05:14:42.833Z,89.63
2018-03-04T05:17:11.933Z,81.97
2018-03-04T05:19:41.016Z,88.17
2018-03-04T05:22:10.132Z,91.50
2018-03-04T05:24:39.214Z,86.13
2018-03-04T05:27:08.322Z,99.87
2018-03-04T05:29:37.455Z,119.83
2018-03-04T05:32:06.540Z,96.00
2018-03-04T05:34:35.638Z,110.00
2018-03-04T05:37:04.735Z,106.43
2018-03-04T05:39:33.858Z,89.63
2018-03-04T05:42:02.960Z,83.90
2018-03-04T05:44:32.054Z,84.77
2018-03-04T05:47:01.158Z,87.27
2018-03-04T05:49:31.014Z,86.30
2018-03-04T05:52:00.106Z,88.10
2018-03-04T05:54:29.206Z,90.70
2018-03-04T05:56:58.302Z,90.50
2018-03-04T05:59:27.460Z,85.93
2018-03-04T06:01:56.543Z,90.80
2018-03-04T06:04:25.646Z,89.60
2018-03-04T06:06:55.505Z,85.83
2018-03-04T06:09:24.616Z,90.00
2018-03-04T06:11:53.729Z,86.67
2018-03-04T06:14:22.848Z,85.33
2018-03-04T06:16:52.719Z,86.63
2018-03-04T06:19:21.834Z,88.67
2018-03-04T06:21:50.935Z,87.60
2018-03-04T06:24:20.046Z,90.47
2018-03-04T06:26:49.917Z,85.07
2018-03-04T06:29:19.022Z,89.27
2018-03-04T06:31:48.893Z,113.90
2018-03-04T06:34:17.982Z,91.30
2018-03-04T06:36:47.102Z,91.13
2018-03-04T06:39:16.195Z,83.30
2018-03-04T06:41:45.325Z,78.53
2018-03-04T06:44:14.402Z,75.00
2018-03-04T06:46:44.286Z,75.27
2018-03-04T06:49:14.166Z,77.10
2018-03-04T06:51:43.266Z,74.50
2018-03-04T06:54:12.354Z,73.30
2018-03-04T06:56:41.476Z,96.53
2018-03-04T06:59:11.355Z,100.40
2018-03-04T07:01:40.463Z,104.80
2018-03-04T07:04:09.575Z,92.27
2018-03-04T07:06:38.665Z,112.93
2018-03-04T07:09:07.789Z,92.97
2018-03-04T07:11:37.643Z,78.60
2018-03-04T07:14:06.748Z,85.33
2018-03-04T07:16:35.861Z,88.50
2018-03-04T07:19:04.982Z,82.83
2018-03-04T07:21:34.842Z,85.60
2018-03-04T07:24:03.951Z,81.40
2018-03-04T07:26:33.044Z,85.57
2018-03-04T07:29:03.785Z,80.87
2018-03-04T07:31:32.895Z,79.90
2018-03-04T07:34:02.029Z,76.60
2018-03-04T07:36:31.892Z,102.73
2018-03-04T07:39:00.987Z,87.30
2018-03-04T07:41:30.118Z,80.27
2018-03-04T07:43:59.958Z,74.60
2018-03-04T07:46:29.081Z,71.57
2018-03-04T07:48:58.944Z,74.20
2018-03-04T07:51:28.840Z,78.10
2018-03-04T07:53:57.933Z,76.13
2018-03-04T07:56:27.056Z,69.20
2018-03-04T07:58:56.943Z,70.77
2018-03-04T08:01:26.073Z,62.20
2018-03-04T08:03:55.191Z,70.73
2018-03-04T08:06:24.303Z,74.47
2018-03-04T08:08:53.410Z,59.80
2018-03-04T08:11:22.540Z,59.10
2018-03-04T08:13:52.411Z,60.87
2018-03-04T08:16:21.522Z,62.60
2018-03-04T08:18:50.630Z,66.10
2018-03-04T08:21:19.729Z,64.93
2018-03-04T08:23:48.905Z,74.87
2018-03-04T08:26:35.700Z,78.27
2018-03-04T08:29:05.014Z,65.90
2018-03-04T08:31:34.093Z,68.30
2018-03-04T08:34:03.234Z,66.80
2018-03-04T08:36:32.338Z,70.07
2018-03-04T08:39:02.227Z,58.40
2018-03-04T08:41:31.319Z,60.73
2018-03-04T08:44:00.430Z,66.00
2018-03-04T08:46:29.564Z,62.17
2018-03-04T08:48:59.437Z,63.87
2018-03-04T08:51:28.541Z,65.67
2018-03-04T08:53:57.689Z,66.17
2018-03-04T08:56:27.530Z,61.70
2018-03-04T08:58:56.655Z,63.80
2018-03-04T09:01:26.540Z,68.57
2018-03-04T09:03:55.654Z,67.20
2018-03-04T09:06:24.779Z,61.30
2018-03-04T09:08:54.662Z,64.40
2018-03-04T09:11:23.759Z,62.07
2018-03-04T09:13:52.880Z,62.30
2018-03-04T09:16:22.753Z,66.53
2018-03-04T09:18:51.865Z,66.77
2018-03-04T09:21:20.990Z,66.93
2018-03-04T09:23:50.871Z,64.10
2018-03-04T09:26:20.031Z,69.47
2018-03-04T09:28:49.128Z,65.40
2018-03-04T09:31:18.258Z,73.70
2018-03-04T09:33:48.148Z,64.33
2018-03-04T09:36:17.246Z,58.10
2018-03-04T09:38:46.347Z,58.30
2018-03-04T09:41:15.476Z,60.83
2018-03-04T09:43:44.563Z,57.90
2018-03-04T09:46:13.685Z,59.63
2018-03-04T09:48:43.563Z,58.73
2018-03-04T09:51:12.670Z,60.33
2018-03-04T09:53:41.793Z,58.53
2018-03-04T09:56:11.695Z,56.87
2018-03-04T09:58:40.794Z,57.97
2018-03-04T10:01:09.898Z,57.93
2018-03-04T10:03:39.777Z,56.90
2018-03-04T10:06:08.891Z,58.17
2018-03-04T10:08:38.051Z,54.60
2018-03-04T10:11:07.145Z,52.57
2018-03-04T10:13:37.111Z,49.80
2018-03-04T10:16:06.974Z,49.20
2018-03-04T10:18:36.106Z,46.00
2018-03-04T10:21:05.969Z,47.70
2018-03-04T10:23:35.093Z,40.13
2018-03-04T10:26:04.962Z,39.00
2018-03-04T10:28:34.887Z,35.17
2018-03-04T10:31:03.998Z,30.60
2018-03-04T10:33:33.103Z,30.73
2018-03-04T10:36:02.220Z,32.20
2018-03-04T10:38:31.320Z,30.20
2018-03-04T10:41:00.466Z,26.03
2018-03-04T10:43:29.554Z,24.80
2018-03-04T10:45:59.430Z,26.57
2018-03-04T10:48:28.558Z,26.20
2018-03-04T10:50:58.428Z,26.07
2018-03-04T10:53:27.550Z,24.00
2018-03-04T10:55:56.681Z,24.90
2018-03-04T10:58:26.564Z,23.20
2018-03-04T11:01:10.134Z,27.10
2018-03-04T11:03:39.243Z,20.77
2018-03-04T11:06:08.351Z,20.23
2018-03-04T11:08:37.470Z,18.37
2018-03-04T11:11:06.618Z,16.57
2018-03-04T11:13:35.739Z,16.33
2018-03-04T11:16:04.963Z,16.90
2018-03-04T11:18:34.078Z,17.47
2018-03-04T11:21:03.184Z,17.87
2018-03-04T11:23:37.012Z,16.10
2018-03-04T11:26:06.108Z,17.30
2018-03-04T11:28:35.257Z,18.20
2018-03-04T11:31:04.406Z,17.10
2018-03-04T11:33:33.533Z,14.97
2018-03-04T11:36:02.673Z,15.20
2018-03-04T11:38:32.559Z,14.40
2018-03-04T11:41:02.627Z,14.30
2018-03-04T11:43:31.731Z,13.40
2018-03-04T11:46:00.833Z,9.33
2018-03-04T11:48:29.984Z,8.17
2018-03-04T11:50:59.097Z,7.83
2018-03-04T11:53:28.964Z,6.93
2018-03-04T11:55:58.200Z,7.00
2018-03-04T11:58:27.319Z,7.50
2018-03-04T12:00:56.422Z,6.83
2018-03-04T12:03:25.554Z,6.60
2018-03-04T12:05:54.712Z,7.10
2018-03-04T12:08:24.609Z,6.37
2018-03-04T12:10:53.720Z,6.00
2018-03-04T12:13:22.849Z,5.60
2018-03-04T12:15:51.964Z,5.90
2018-03-04T12:18:21.081Z,6.00
2018-03-04T12:20:50.185Z,6.73
2018-03-04T12:23:20.091Z,3.67
2018-03-04T12:25:49.219Z,3.50
2018-03-04T12:28:18.350Z,2.90
2018-03-04T12:30:47.460Z,2.83
2018-03-04T12:33:16.587Z,2.40
2018-03-04T12:35:45.699Z,3.73
2018-03-04T12:38:14.846Z,2.57
2018-03-04T12:40:43.986Z,2.77
2018-03-04T12:43:13.889Z,2.43
2018-03-04T12:45:43.018Z,3.00
2018-03-04T12:48:12.103Z,3.13
2018-03-04T12:50:41.225Z,3.30
2018-03-04T12:53:10.337Z,3.23
2018-03-04T12:55:39.453Z,2.83
2018-03-04T12:58:08.622Z,2.60
2018-03-04T13:00:37.765Z,2.90
2018-03-04T13:03:07.628Z,3.60
2018-03-04T13:05:36.741Z,3.57
2018-03-04T13:08:06.673Z,2.83
2018-03-04T13:10:36.598Z,2.47
2018-03-04T13:13:05.708Z,2.67
2018-03-04T13:15:35.602Z,2.43
2018-03-04T13:18:05.419Z,2.47
2018-03-04T13:20:34.507Z,2.60
2018-03-04T13:23:03.628Z,3.10
2018-03-04T13:25:33.521Z,3.13
2018-03-04T13:28:02.643Z,2.70
2018-03-04T13:30:31.793Z,2.97
2018-03-04T13:33:00.915Z,3.47
2018-03-04T13:35:30.034Z,3.03
2018-03-04T13:37:59.902Z,3.83
2018-03-04T13:40:29.043Z,5.60
2018-03-04T13:42:58.184Z,4.63
2018-03-04T13:45:28.250Z,3.60
2018-03-04T13:47:58.111Z,3.40
2018-03-04T13:50:27.250Z,3.07
2018-03-04T13:52:56.348Z,2.90
2018-03-04T13:55:26.266Z,2.70
2018-03-04T13:57:55.385Z,2.80
2018-03-04T14:00:25.260Z,2.37
2018-03-04T14:02:54.361Z,3.27
2018-03-04T14:05:23.470Z,2.97
2018-03-04T14:07:52.578Z,3.97
2018-03-04T14:10:22.458Z,2.53
2018-03-04T14:12:51.581Z,2.60
2018-03-04T14:15:21.459Z,2.60
2018-03-04T14:17:50.579Z,2.60
2018-03-04T14:20:19.726Z,4.10
2018-03-04T14:22:48.818Z,2.93
2018-03-04T14:25:17.973Z,2.60
2018-03-04T14:27:47.054Z,3.20
2018-03-04T14:30:16.182Z,2.90
2018-03-04T14:32:46.057Z,3.53
2018-03-04T14:35:15.145Z,2.97
2018-03-04T14:37:44.324Z,2.87
2018-03-04T14:40:14.176Z,2.47
2018-03-04T14:42:43.311Z,2.40
2018-03-04T14:45:13.158Z,2.73
2018-03-04T14:47:42.306Z,2.27
2018-03-04T14:50:12.217Z,2.70
2018-03-04T14:52:48.535Z,2.30
2018-03-04T14:55:17.645Z,2.57
2018-03-04T14:57:46.760Z,2.33
2018-03-04T15:00:15.857Z,2.80
2018-03-04T15:02:45.764Z,2.37
2018-03-04T15:05:14.914Z,2.40
2018-03-04T15:07:44.029Z,2.80
2018-03-04T15:10:13.977Z,2.93
2018-03-04T15:12:43.099Z,2.37
2018-03-04T15:15:12.251Z,2.83
2018-03-04T15:17:41.378Z,2.33
2018-03-04T15:20:10.470Z,2.03
2018-03-04T15:22:40.373Z,2.17
2018-03-04T15:25:09.505Z,2.40
2018-03-04T15:27:39.396Z,1.97
2018-03-04T15:30:10.013Z,2.80
2018-03-04T15:32:39.150Z,2.73
2018-03-04T15:35:08.276Z,2.90
2018-03-04T15:37:37.461Z,2.70
2018-03-04T15:40:06.537Z,2.80
2018-03-04T15:42:36.417Z,2.73
2018-03-04T15:45:05.572Z,2.57
2018-03-04T15:47:34.664Z,2.33
2018-03-04T15:50:03.792Z,3.47
2018-03-04T15:52:33.649Z,2.90
2018-03-04T15:55:02.783Z,2.90
2018-03-04T15:57:31.917Z,2.70
2018-03-04T16:00:01.019Z,2.70
2018-03-04T16:02:30.165Z,2.57
2018-03-04T16:04:59.271Z,2.83
2018-03-04T16:07:28.400Z,3.13
2018-03-04T16:09:57.520Z,2.90
2018-03-04T16:12:27.417Z,2.80
2018-03-04T16:14:56.522Z,2.90
2018-03-04T16:17:25.639Z,3.37
2018-03-04T16:19:55.546Z,3.47
2018-03-04T16:22:25.450Z,3.70
2018-03-04T16:24:54.552Z,2.97
2018-03-04T16:27:24.488Z,2.43
2018-03-04T16:29:53.640Z,3.03
2018-03-04T16:32:22.795Z,2.73
2018-03-04T16:34:51.908Z,3.20
2018-03-04T16:37:21.017Z,3.03
2018-03-04T16:39:50.137Z,3.67
2018-03-04T16:42:20.056Z,3.10
2018-03-04T16:44:49.202Z,2.90
2018-03-04T16:47:18.321Z,3.40
2018-03-04T16:49:47.445Z,3.17
2018-03-04T16:52:17.343Z,3.20
2018-03-04T16:54:46.469Z,3.20
2018-03-04T16:57:16.362Z,2.90
2018-03-04T16:59:47.010Z,3.23
2018-03-04T17:02:16.884Z,2.53
2018-03-04T17:04:46.008Z,3.80
2018-03-04T17:07:15.156Z,8.63
2018-03-04T17:09:44.275Z,3.77
2018-03-04T17:12:13.379Z,3.27
2018-03-04T17:14:42.519Z,3.73
2018-03-04T17:17:12.423Z,3.50
2018-03-04T17:19:42.327Z,3.83
2018-03-04T17:22:12.239Z,4.70
2018-03-04T17:24:41.347Z,4.27
2018-03-04T17:27:11.227Z,4.10
2018-03-04T17:29:40.346Z,4.30
2018-03-04T17:32:09.475Z,3.37
2018-03-04T17:34:38.588Z,4.80
2018-03-04T17:37:07.733Z,4.30
2018-03-04T17:39:36.836Z,3.57
2018-03-04T17:42:05.957Z,4.37
2018-03-04T17:44:35.820Z,3.60
2018-03-04T17:47:04.942Z,3.27
2018-03-04T17:49:34.076Z,3.90
2018-03-04T17:52:03.183Z,4.43
2018-03-04T17:54:32.309Z,5.10
2018-03-04T17:57:01.415Z,4.83
2018-03-04T17:59:30.560Z,4.40
2018-03-04T18:01:59.700Z,6.33
2018-03-04T18:04:28.839Z,6.43
2018-03-04T18:06:57.981Z,4.30
2018-03-04T18:09:27.148Z,5.33
2018-03-04T18:11:56.258Z,6.73
2018-03-04T18:14:25.408Z,5.53
2018-03-04T18:16:54.499Z,4.70
2018-03-04T18:19:24.406Z,4.60
2018-03-04T18:21:53.525Z,4.30
2018-03-04T18:24:23.413Z,5.33
2018-03-04T18:26:52.555Z,5.50
2018-03-04T18:29:21.687Z,5.73
2018-03-04T18:31:50.793Z,5.80
2018-03-04T18:34:20.729Z,6.80
2018-03-04T18:36:49.857Z,6.60
2018-03-04T18:39:18.976Z,4.93
2018-03-04T18:41:48.067Z,5.90
2018-03-04T18:44:17.225Z,6.30
2018-03-04T18:46:46.300Z,5.17
2018-03-04T18:49:15.403Z,5.70
2018-03-04T18:51:44.523Z,5.97
2018-03-04T18:54:14.385Z,6.17
2018-03-04T18:56:43.544Z,5.40
2018-03-04T18:59:13.423Z,5.93
2018-03-04T19:01:43.315Z,5.73
2018-03-04T19:04:12.426Z,6.90
2018-03-04T19:06:41.552Z,6.70
2018-03-04T19:09:11.425Z,6.20
2018-03-04T19:11:41.315Z,7.50
2018-03-04T19:14:10.419Z,6.50
2018-03-04T19:16:39.547Z,6.80
2018-03-04T19:19:08.676Z,6.10
2018-03-04T19:21:38.573Z,6.33
2018-03-04T19:24:07.696Z,6.73
2018-03-04T19:26:37.539Z,7.53
2018-03-04T19:29:06.688Z,7.37
2018-03-04T19:31:36.577Z,7.80
2018-03-04T19:34:05.744Z,9.03
2018-03-04T19:36:34.840Z,8.63
2018-03-04T19:39:04.000Z,7.20
2018-03-04T19:41:33.880Z,8.23
2018-03-04T19:44:03.033Z,8.40
2018-03-04T19:46:32.195Z,7.33
2018-03-04T19:49:01.309Z,7.10
2018-03-04T19:51:31.207Z,7.53
2018-03-04T19:54:00.328Z,8.10
2018-03-04T19:56:29.457Z,10.40
2018-03-04T19:58:58.575Z,9.63
2018-03-04T20:01:27.691Z,13.43
2018-03-04T20:03:56.810Z,17.80
2018-03-04T20:06:26.706Z,25.00
2018-03-04T20:08:55.842Z,24.60
2018-03-04T20:11:24.995Z,27.27
2018-03-04T20:13:54.076Z,28.40
2018-03-04T20:16:24.707Z,26.43
2018-03-04T20:18:53.820Z,31.07
2018-03-04T20:21:23.015Z,30.23
2018-03-04T20:23:52.137Z,30.80
2018-03-04T20:26:22.069Z,27.87
2018-03-04T20:28:51.947Z,28.93
2018-03-04T20:31:21.847Z,25.87
2018-03-04T20:33:50.967Z,30.90
2018-03-04T20:36:20.890Z,31.30
2018-03-04T20:38:50.766Z,34.10
2018-03-04T20:41:19.902Z,34.27
2018-03-04T20:43:49.776Z,32.20
2018-03-04T20:46:18.934Z,31.70
2018-03-04T20:48:48.027Z,31.80
2018-03-04T20:51:17.153Z,32.53
2018-03-04T20:53:46.299Z,33.13
2018-03-04T20:56:16.213Z,34.20
2018-03-04T20:58:46.396Z,34.33
2018-03-04T21:01:16.314Z,32.40
2018-03-04T21:03:45.455Z,33.73
2018-03-04T21:06:15.327Z,33.07
2018-03-04T21:08:44.423Z,34.60
2018-03-04T21:11:13.566Z,30.33
2018-03-04T21:13:42.748Z,32.47
2018-03-04T21:16:12.670Z,34.33
2018-03-04T21:18:42.572Z,31.67
2018-03-04T21:21:12.455Z,31.20
2018-03-04T21:23:41.560Z,33.57
2018-03-04T21:26:10.698Z,32.83
2018-03-04T21:28:39.789Z,33.77
2018-03-04T21:31:08.903Z,31.27
2018-03-04T21:33:38.042Z,35.27
2018-03-04T21:36:07.132Z,34.20
2018-03-04T21:38:36.280Z,34.70
2018-03-04T21:41:05.407Z,34.00
2018-03-04T21:43:34.533Z,32.93
2018-03-04T21:46:03.622Z,35.27
2018-03-04T21:48:32.750Z,34.80
2018-03-04T21:51:02.032Z,35.73
2018-03-04T21:53:31.164Z,34.87
2018-03-04T21:56:01.019Z,37.00
2018-03-04T21:58:30.866Z,37.90
2018-03-04T22:01:00.757Z,37.40
2018-03-04T22:03:29.862Z,38.63
2018-03-04T22:05:58.974Z,39.10
2018-03-04T22:08:28.837Z,37.83
2018-03-04T22:10:57.953Z,40.77
2018-03-04T22:13:27.047Z,41.27
2018-03-04T22:15:56.158Z,41.60
2018-03-04T22:18:25.255Z,38.67
2018-03-04T22:20:55.911Z,38.47
2018-03-04T22:23:24.993Z,41.87
2018-03-04T22:25:54.869Z,38.00
2018-03-04T22:28:23.962Z,36.60
2018-03-04T22:30:53.086Z,35.73
2018-03-04T22:33:22.176Z,35.87
2018-03-04T22:35:51.283Z,30.13
2018-03-04T22:38:20.388Z,29.53
2018-03-04T22:40:49.505Z,29.00
2018-03-04T22:43:19.351Z,29.40
2018-03-04T22:45:48.487Z,29.20
2018-03-04T22:48:17.600Z,29.10
2018-03-04T22:50:47.448Z,28.80
2018-03-04T22:53:16.558Z,27.80
2018-03-04T22:55:45.678Z,28.77
2018-03-04T22:58:14.778Z,25.33
2018-03-04T23:00:43.922Z,24.40
2018-03-04T23:03:13.043Z,24.40
2018-03-04T23:05:43.057Z,26.47
2018-03-04T23:08:12.187Z,25.43
2018-03-04T23:10:42.054Z,25.03
2018-03-04T23:13:11.146Z,25.77
2018-03-04T23:15:41.016Z,25.60
2018-03-04T23:18:10.118Z,25.73
2018-03-04T23:20:39.220Z,24.37
2018-03-04T23:23:08.300Z,24.80
2018-03-04T23:25:37.416Z,25.10
2018-03-04T23:28:07.100Z,23.37
2018-03-04T23:30:36.227Z,23.73
2018-03-04T23:33:06.136Z,25.27
2018-03-04T23:35:35.232Z,24.27
2018-03-04T23:38:05.084Z,23.57
2018-03-04T23:40:34.194Z,24.43
2018-03-04T23:43:04.053Z,22.97
2018-03-04T23:45:33.147Z,23.57
2018-03-04T23:48:02.989Z,23.23
2018-03-04T23:50:32.104Z,22.67
2018-03-04T23:53:01.194Z,21.53
2018-03-04T23:55:30.287Z,23.70
2018-03-04T23:57:59.415Z,23.50
